createdAt,value
2018-11-25T00:00:02.847Z,7.00
2018-11-25T00:02:31.023Z,7.00
2018-11-25T00:04:59.210Z,7.00
2018-11-25T00:07:30.191Z,7.00
2018-11-25T00:09:55.598Z,7.00
2018-11-25T00:12:23.778Z,7.00
2018-11-25T00:14:51.955Z,7.00
2018-11-25T00:17:20.207Z,7.00
2018-11-25T00:19:48.335Z,7.00
2018-11-25T00:22:17.482Z,7.00
2018-11-25T00:24:45.635Z,7.00
2018-11-25T00:27:13.822Z,7.00
2018-11-25T00:29:42.006Z,7.00
2018-11-25T00:32:10.202Z,7.00
2018-11-25T00:34:38.430Z,7.00
2018-11-25T00:37:06.570Z,7.00
2018-11-25T00:39:34.744Z,7.00
2018-11-25T00:42:02.949Z,7.00
2018-11-25T00:44:31.122Z,7.00
2018-11-25T00:46:59.319Z,7.00
2018-11-25T00:49:27.494Z,7.00
2018-11-25T00:51:55.691Z,7.00
2018-11-25T00:54:23.874Z,6.90
2018-11-25T00:56:52.068Z,7.00
2018-11-25T00:59:20.240Z,6.90
2018-11-25T01:01:48.454Z,6.90
2018-11-25T01:04:16.628Z,6.90
2018-11-25T01:06:44.804Z,6.90
2018-11-25T01:09:13.003Z,6.90
2018-11-25T01:11:41.187Z,6.90
2018-11-25T01:14:09.290Z,6.90
2018-11-25T01:16:37.459Z,6.90
2018-11-25T01:19:05.655Z,6.90
2018-11-25T01:21:33.821Z,6.90
2018-11-25T01:24:02.030Z,6.90
2018-11-25T01:26:30.206Z,6.90
2018-11-25T01:28:58.395Z,6.90
2018-11-25T01:31:26.570Z,6.90
2018-11-25T01:33:54.763Z,6.90
2018-11-25T01:36:22.951Z,6.90
2018-11-25T01:38:51.151Z,6.80
2018-11-25T01:41:19.314Z,6.80
2018-11-25T01:43:47.523Z,6.80
2018-11-25T01:46:15.694Z,6.80
2018-11-25T01:48:43.887Z,6.80
2018-11-25T01:51:12.067Z,6.80
2018-11-25T01:53:40.269Z,6.80
2018-11-25T01:56:08.439Z,6.80
2018-11-25T01:58:36.634Z,6.80
2018-11-25T02:01:05.396Z,6.80
2018-11-25T02:03:33.523Z,6.80
2018-11-25T02:06:01.756Z,6.80
2018-11-25T02:08:29.890Z,6.80
2018-11-25T02:10:58.083Z,6.80
2018-11-25T02:13:26.255Z,6.80
2018-11-25T02:15:54.446Z,6.80
2018-11-25T02:18:22.639Z,6.80
2018-11-25T02:20:50.827Z,6.70
2018-11-25T02:23:18.999Z,6.70
2018-11-25T02:25:47.206Z,6.70
2018-11-25T02:28:15.390Z,6.70
2018-11-25T02:30:43.579Z,6.70
2018-11-25T02:33:11.760Z,6.60
2018-11-25T02:35:39.950Z,6.60
2018-11-25T02:38:08.139Z,6.60
2018-11-25T02:40:36.322Z,6.60
2018-11-25T02:43:04.514Z,6.60
2018-11-25T02:45:32.594Z,6.60
2018-11-25T02:48:00.768Z,6.60
2018-11-25T02:50:29.710Z,6.60
2018-11-25T02:53:01.010Z,6.70
2018-11-25T02:55:29.119Z,6.60
2018-11-25T02:57:57.307Z,6.60
2018-11-25T03:00:25.500Z,6.60
2018-11-25T03:02:53.670Z,6.60
2018-11-25T03:05:21.773Z,6.60
2018-11-25T03:07:49.943Z,6.60
2018-11-25T03:10:18.035Z,6.60
2018-11-25T03:12:46.224Z,6.70
2018-11-25T03:15:16.337Z,6.60
2018-11-25T03:17:44.477Z,6.70
2018-11-25T03:20:13.631Z,6.70
2018-11-25T03:22:41.731Z,6.70
2018-11-25T03:25:17.595Z,6.70
2018-11-25T03:27:45.723Z,6.70
2018-11-25T03:30:15.847Z,6.70
2018-11-25T03:32:44.738Z,6.70
2018-11-25T03:35:13.387Z,6.70
2018-11-25T03:37:41.516Z,6.70
2018-11-25T03:40:15.504Z,6.70
2018-11-25T03:42:43.621Z,6.70
2018-11-25T03:45:13.825Z,6.70
2018-11-25T03:47:41.938Z,6.70
2018-11-25T03:50:10.915Z,6.70
2018-11-25T03:52:39.035Z,6.70
2018-11-25T03:55:09.443Z,6.60
2018-11-25T03:57:37.542Z,6.70
2018-11-25T04:00:11.342Z,6.60
2018-11-25T04:02:39.460Z,6.60
2018-11-25T04:05:09.250Z,6.60
2018-11-25T04:07:37.366Z,6.60
2018-11-25T04:10:10.134Z,6.60
2018-11-25T04:12:38.455Z,6.60
2018-11-25T04:15:12.448Z,6.60
2018-11-25T04:17:40.530Z,6.60
2018-11-25T04:20:10.820Z,6.60
2018-11-25T04:22:38.979Z,6.60
2018-11-25T04:25:08.479Z,6.60
2018-11-25T04:27:36.709Z,6.60
2018-11-25T04:30:08.020Z,6.60
2018-11-25T04:32:36.131Z,6.60
2018-11-25T04:35:04.307Z,6.60
2018-11-25T04:37:32.403Z,6.60
2018-11-25T04:40:00.586Z,6.60
2018-11-25T04:42:28.781Z,6.60
2018-11-25T04:44:56.958Z,6.50
2018-11-25T04:47:25.043Z,6.50
2018-11-25T04:49:53.232Z,6.60
2018-11-25T04:52:21.315Z,6.50
2018-11-25T04:54:49.505Z,6.50
2018-11-25T04:57:17.711Z,6.50
2018-11-25T04:59:45.911Z,6.50
2018-11-25T05:02:14.092Z,6.50
2018-11-25T05:04:42.392Z,6.50
2018-11-25T05:07:10.579Z,6.50
2018-11-25T05:09:38.751Z,6.50
2018-11-25T05:12:07.861Z,6.50
2018-11-25T05:14:36.073Z,6.50
2018-11-25T05:17:04.231Z,6.50
2018-11-25T05:19:32.426Z,6.50
2018-11-25T05:22:00.602Z,6.60
2018-11-25T05:24:28.794Z,6.60
2018-11-25T05:26:56.975Z,6.60
2018-11-25T05:29:25.174Z,6.60
2018-11-25T05:31:53.507Z,6.60
2018-11-25T05:34:21.642Z,6.60
2018-11-25T05:36:49.829Z,6.60
2018-11-25T05:39:18.019Z,6.60
2018-11-25T05:41:46.291Z,6.60
2018-11-25T05:44:14.400Z,6.60
2018-11-25T05:46:42.566Z,6.60
2018-11-25T05:49:10.770Z,6.60
2018-11-25T05:51:38.943Z,6.60
2018-11-25T05:54:07.151Z,6.60
2018-11-25T05:56:35.331Z,6.60
2018-11-25T05:59:03.523Z,6.60
2018-11-25T06:01:31.699Z,6.60
2018-11-25T06:03:59.894Z,6.60
2018-11-25T06:06:28.081Z,6.60
2018-11-25T06:08:56.258Z,6.60
2018-11-25T06:11:24.450Z,6.60
2018-11-25T06:13:52.643Z,6.60
2018-11-25T06:16:20.827Z,6.60
2018-11-25T06:18:49.003Z,6.60
2018-11-25T06:21:17.194Z,6.60
2018-11-25T06:23:45.383Z,6.60
2018-11-25T06:26:13.571Z,6.60
2018-11-25T06:28:41.765Z,6.60
2018-11-25T06:31:09.960Z,6.60
2018-11-25T06:33:38.130Z,6.60
2018-11-25T06:36:06.314Z,6.50
2018-11-25T06:38:34.494Z,6.50
2018-11-25T06:41:02.696Z,6.50
2018-11-25T06:43:30.879Z,6.50
2018-11-25T06:45:59.070Z,6.50
2018-11-25T06:48:27.251Z,6.50
2018-11-25T06:50:55.443Z,6.50
2018-11-25T06:53:23.623Z,6.50
2018-11-25T06:55:52.279Z,6.50
2018-11-25T06:58:20.402Z,6.50
2018-11-25T07:00:48.603Z,6.50
2018-11-25T07:03:16.785Z,6.50
2018-11-25T07:05:45.057Z,6.50
2018-11-25T07:08:13.163Z,6.50
2018-11-25T07:10:41.350Z,6.60
2018-11-25T07:13:09.543Z,6.60
2018-11-25T07:15:37.723Z,6.60
2018-11-25T07:18:05.906Z,6.60
2018-11-25T07:20:34.107Z,6.60
2018-11-25T07:23:02.278Z,6.60
2018-11-25T07:25:30.467Z,6.60
2018-11-25T07:27:58.651Z,6.60
2018-11-25T07:30:27.782Z,6.60
2018-11-25T07:32:56.012Z,6.60
2018-11-25T07:35:26.266Z,6.50
2018-11-25T07:37:54.412Z,6.50
2018-11-25T07:40:23.254Z,6.50
2018-11-25T07:42:51.475Z,6.40
2018-11-25T07:45:29.738Z,6.40
2018-11-25T07:47:49.906Z,6.40
2018-11-25T07:50:18.067Z,6.40
2018-11-25T07:52:47.057Z,6.40
2018-11-25T07:55:21.276Z,6.30
2018-11-25T07:57:50.286Z,6.30
2018-11-25T08:00:20.400Z,6.30
2018-11-25T08:02:48.522Z,6.30
2018-11-25T08:05:17.899Z,6.30
2018-11-25T08:07:46.055Z,6.30
2018-11-25T08:10:14.990Z,6.30
2018-11-25T08:12:43.487Z,6.20
2018-11-25T08:15:15.554Z,6.20
2018-11-25T08:17:43.677Z,6.20
2018-11-25T08:20:12.861Z,6.20
2018-11-25T08:22:41.011Z,6.20
2018-11-25T08:25:15.174Z,6.30
2018-11-25T08:27:43.287Z,6.30
2018-11-25T08:30:21.070Z,6.30
2018-11-25T08:32:49.466Z,6.30
2018-11-25T08:35:17.887Z,6.40
2018-11-25T08:37:45.983Z,6.40
2018-11-25T08:40:15.003Z,6.50
2018-11-25T08:42:43.103Z,6.50
2018-11-25T08:45:12.139Z,6.60
2018-11-25T08:47:40.226Z,6.60
2018-11-25T08:50:11.299Z,6.70
2018-11-25T08:52:39.575Z,6.70
2018-11-25T08:55:12.875Z,6.80
2018-11-25T08:57:41.022Z,6.80
2018-11-25T09:00:17.132Z,6.80
2018-11-25T09:02:45.415Z,6.70
2018-11-25T09:05:14.461Z,6.70
2018-11-25T09:07:42.699Z,6.70
2018-11-25T09:10:12.031Z,6.70
2018-11-25T09:12:40.207Z,6.80
2018-11-25T09:15:10.147Z,6.80
2018-11-25T09:17:38.279Z,6.90
2018-11-25T09:20:09.499Z,7.00
2018-11-25T09:22:37.623Z,7.10
2018-11-25T09:25:08.748Z,7.20
2018-11-25T09:27:36.858Z,7.20
2018-11-25T09:30:10.044Z,7.30
2018-11-25T09:32:38.147Z,7.40
2018-11-25T09:35:06.799Z,7.40
2018-11-25T09:37:34.891Z,7.40
2018-11-25T09:40:03.095Z,7.50
2018-11-25T09:42:31.305Z,7.50
2018-11-25T09:44:59.502Z,7.50
2018-11-25T09:47:27.677Z,7.60
2018-11-25T09:49:55.787Z,7.50
2018-11-25T09:52:23.887Z,7.50
2018-11-25T09:54:52.023Z,7.50
2018-11-25T09:57:20.218Z,7.50
2018-11-25T09:59:48.414Z,7.40
2018-11-25T10:02:16.538Z,7.40
2018-11-25T10:04:44.622Z,7.40
2018-11-25T10:07:12.775Z,7.40
2018-11-25T10:09:40.885Z,7.40
2018-11-25T10:12:10.063Z,7.40
2018-11-25T10:14:38.268Z,7.50
2018-11-25T10:17:06.371Z,7.50
2018-11-25T10:19:34.507Z,7.50
2018-11-25T10:22:02.707Z,7.50
2018-11-25T10:24:30.899Z,7.60
2018-11-25T10:26:59.100Z,7.60
2018-11-25T10:29:27.192Z,7.60
2018-11-25T10:31:55.363Z,7.70
2018-11-25T10:34:23.535Z,7.70
2018-11-25T10:36:51.740Z,7.80
2018-11-25T10:39:19.843Z,7.80
2018-11-25T10:41:47.994Z,7.80
2018-11-25T10:44:16.106Z,7.90
2018-11-25T10:46:44.288Z,7.90
2018-11-25T10:49:12.463Z,8.00
2018-11-25T10:51:40.652Z,8.00
2018-11-25T10:54:08.835Z,8.10
2018-11-25T10:56:37.022Z,8.10
2018-11-25T10:59:05.253Z,8.20
2018-11-25T11:01:49.512Z,8.20
2018-11-25T11:04:21.863Z,8.30
2018-11-25T11:06:55.491Z,8.30
2018-11-25T11:09:23.667Z,8.30
2018-11-25T11:11:51.873Z,8.40
2018-11-25T11:14:20.035Z,8.40
2018-11-25T11:16:53.843Z,8.40
2018-11-25T11:19:16.440Z,8.40
2018-11-25T11:21:44.599Z,8.40
2018-11-25T11:24:12.782Z,8.50
2018-11-25T11:26:40.963Z,8.50
2018-11-25T11:29:09.147Z,8.50
2018-11-25T11:31:37.368Z,8.50
2018-11-25T11:34:05.539Z,8.50
2018-11-25T11:36:33.720Z,8.40
2018-11-25T11:39:01.915Z,8.40
2018-11-25T11:41:30.096Z,8.40
2018-11-25T11:43:58.267Z,8.50
2018-11-25T11:46:26.468Z,8.50
2018-11-25T11:48:54.646Z,8.50
2018-11-25T11:51:25.823Z,8.50
2018-11-25T11:53:50.923Z,8.50
2018-11-25T11:56:19.096Z,8.50
2018-11-25T11:58:47.271Z,8.60
2018-11-25T12:01:15.488Z,8.60
2018-11-25T12:03:43.647Z,8.60
2018-11-25T12:06:11.732Z,8.60
2018-11-25T12:08:39.951Z,8.60
2018-11-25T12:11:08.100Z,8.70
2018-11-25T12:13:36.194Z,8.70
2018-11-25T12:16:04.557Z,8.80
2018-11-25T12:18:32.679Z,8.80
2018-11-25T12:21:00.756Z,8.80
2018-11-25T12:23:28.935Z,8.90
2018-11-25T12:25:57.106Z,8.90
2018-11-25T12:28:25.207Z,9.00
2018-11-25T12:30:53.383Z,9.00
2018-11-25T12:33:21.462Z,9.00
2018-11-25T12:35:49.560Z,9.00
2018-11-25T12:38:17.747Z,9.00
2018-11-25T12:40:45.947Z,9.10
2018-11-25T12:43:14.127Z,9.10
2018-11-25T12:45:42.303Z,9.10
2018-11-25T12:48:10.404Z,9.20
2018-11-25T12:50:38.571Z,9.20
2018-11-25T12:53:06.687Z,9.20
2018-11-25T12:55:34.867Z,9.20
2018-11-25T12:58:03.060Z,9.10
2018-11-25T13:00:34.509Z,9.10
2018-11-25T13:03:02.620Z,9.10
2018-11-25T13:05:30.865Z,9.10
2018-11-25T13:07:58.963Z,9.10
2018-11-25T13:10:27.150Z,9.10
2018-11-25T13:12:55.337Z,9.00
2018-11-25T13:15:23.529Z,9.00
2018-11-25T13:17:51.695Z,9.00
2018-11-25T13:20:19.808Z,9.00
2018-11-25T13:22:47.890Z,8.90
2018-11-25T13:25:16.867Z,9.00
2018-11-25T13:27:45.075Z,9.00
2018-11-25T13:30:20.302Z,9.00
2018-11-25T13:32:48.104Z,9.00
2018-11-25T13:35:16.307Z,9.10
2018-11-25T13:37:44.383Z,9.10
2018-11-25T13:40:13.768Z,9.10
2018-11-25T13:42:41.875Z,9.20
2018-11-25T13:45:10.343Z,9.20
2018-11-25T13:47:38.612Z,9.20
2018-11-25T13:50:08.920Z,9.20
2018-11-25T13:52:37.899Z,9.20
2018-11-25T13:55:11.678Z,9.20
2018-11-25T13:57:39.799Z,9.20
2018-11-25T14:01:11.359Z,9.20
2018-11-25T14:03:41.183Z,9.20
2018-11-25T14:06:11.648Z,9.20
2018-11-25T14:08:39.847Z,9.20
2018-11-25T14:11:12.603Z,9.10
2018-11-25T14:13:40.683Z,9.10
2018-11-25T14:16:10.628Z,9.10
2018-11-25T14:18:38.707Z,9.10
2018-11-25T14:21:07.047Z,9.10
2018-11-25T14:23:35.126Z,9.10
2018-11-25T14:26:07.268Z,9.00
2018-11-25T14:28:35.338Z,9.00
2018-11-25T14:31:03.432Z,9.00
2018-11-25T14:33:31.507Z,9.00
2018-11-25T14:35:59.603Z,9.00
2018-11-25T14:38:27.686Z,8.90
2018-11-25T14:40:55.781Z,8.90
2018-11-25T14:43:23.935Z,8.80
2018-11-25T14:45:52.007Z,8.90
2018-11-25T14:48:20.083Z,8.80
2018-11-25T14:50:48.171Z,8.80
2018-11-25T14:53:16.299Z,8.80
2018-11-25T14:55:44.398Z,8.80
2018-11-25T14:58:12.603Z,8.70
2018-11-25T15:00:40.807Z,8.70
2018-11-25T15:03:08.914Z,8.70
2018-11-25T15:05:45.103Z,8.70
2018-11-25T15:08:15.955Z,8.60
2018-11-25T15:10:44.058Z,8.60
2018-11-25T15:13:12.203Z,8.60
2018-11-25T15:15:40.326Z,8.50
2018-11-25T15:18:09.135Z,8.50
2018-11-25T15:20:37.366Z,8.50
2018-11-25T15:23:07.742Z,8.50
2018-11-25T15:25:37.385Z,8.50
2018-11-25T15:28:06.616Z,8.50
2018-11-25T15:30:34.862Z,8.50
2018-11-25T15:33:02.995Z,8.40
2018-11-25T15:35:31.191Z,8.40
2018-11-25T15:37:59.371Z,8.40
2018-11-25T15:40:29.051Z,8.30
2018-11-25T15:42:57.171Z,8.30
2018-11-25T15:45:25.379Z,8.30
2018-11-25T15:48:01.395Z,8.20
2018-11-25T15:50:30.006Z,8.20
2018-11-25T15:52:58.115Z,8.20
2018-11-25T15:55:26.325Z,8.20
2018-11-25T15:57:54.407Z,8.20
2018-11-25T16:00:23.682Z,8.20
2018-11-25T16:02:51.844Z,8.20
2018-11-25T16:05:22.493Z,8.20
2018-11-25T16:07:50.622Z,8.10
2018-11-25T16:10:18.721Z,8.10
2018-11-25T16:12:48.332Z,8.10
2018-11-25T16:15:18.068Z,8.10
2018-11-25T16:17:46.313Z,8.10
2018-11-25T16:20:20.638Z,8.10
2018-11-25T16:22:50.234Z,8.10
2018-11-25T16:25:38.439Z,8.10
2018-11-25T16:28:14.292Z,8.10
2018-11-25T16:30:42.490Z,8.10
2018-11-25T16:33:10.687Z,8.00
2018-11-25T16:35:38.875Z,8.00
2018-11-25T16:38:07.642Z,8.00
2018-11-25T16:40:35.793Z,8.00
2018-11-25T16:43:04.160Z,8.00
2018-11-25T16:45:32.328Z,7.90
2018-11-25T16:48:00.526Z,7.90
2018-11-25T16:50:28.709Z,7.90
2018-11-25T16:52:56.912Z,7.90
2018-11-25T16:55:25.081Z,7.90
2018-11-25T16:57:53.259Z,7.90
2018-11-25T17:00:21.460Z,7.90
2018-11-25T17:02:49.624Z,7.90
2018-11-25T17:05:20.149Z,7.80
2018-11-25T17:07:52.122Z,7.80
2018-11-25T17:10:20.219Z,7.80
2018-11-25T17:12:48.452Z,7.80
2018-11-25T17:15:21.896Z,7.80
2018-11-25T17:17:50.053Z,7.80
2018-11-25T17:20:18.351Z,7.80
2018-11-25T17:22:46.515Z,7.70
2018-11-25T17:25:14.670Z,7.70
2018-11-25T17:27:43.033Z,7.70
2018-11-25T17:30:13.099Z,7.70
2018-11-25T17:32:41.573Z,7.70
2018-11-25T17:35:22.449Z,7.70
2018-11-25T17:37:50.556Z,7.70
2018-11-25T17:40:18.747Z,7.70
2018-11-25T17:42:46.938Z,7.70
2018-11-25T17:45:15.135Z,7.70
2018-11-25T17:47:43.458Z,7.70
2018-11-25T17:50:21.435Z,7.60
2018-11-25T17:52:49.654Z,7.60
2018-11-25T17:55:18.482Z,7.60
2018-11-25T17:57:46.618Z,7.50
2018-11-25T18:00:30.599Z,7.50
2018-11-25T18:02:58.802Z,7.50
2018-11-25T18:05:26.967Z,7.60
2018-11-25T18:07:55.148Z,7.60
2018-11-25T18:10:23.318Z,7.50
2018-11-25T18:12:51.883Z,7.50
2018-11-25T18:15:21.111Z,7.50
2018-11-25T18:17:57.457Z,7.50
2018-11-25T18:20:27.822Z,7.50
2018-11-25T18:22:55.930Z,7.50
2018-11-25T18:25:24.043Z,7.40
2018-11-25T18:28:00.048Z,7.40
2018-11-25T18:30:20.440Z,7.40
2018-11-25T18:32:48.582Z,7.40
2018-11-25T18:35:16.769Z,7.40
2018-11-25T18:37:45.040Z,7.40
2018-11-25T18:40:13.707Z,7.30
2018-11-25T18:42:42.723Z,7.30
2018-11-25T18:45:16.090Z,7.30
2018-11-25T18:47:46.789Z,7.30
2018-11-25T18:50:15.659Z,7.30
2018-11-25T18:52:45.425Z,7.30
2018-11-25T18:55:12.580Z,7.30
2018-11-25T18:57:40.799Z,7.30
2018-11-25T19:00:10.523Z,7.30
2018-11-25T19:02:42.607Z,7.30
2018-11-25T19:05:10.919Z,7.30
2018-11-25T19:07:39.067Z,7.30
2018-11-25T19:10:10.200Z,7.30
2018-11-25T19:12:44.027Z,7.30
2018-11-25T19:15:08.723Z,7.30
2018-11-25T19:17:36.843Z,7.20
2018-11-25T19:20:12.979Z,7.20
2018-11-25T19:22:41.579Z,7.20
2018-11-25T19:25:11.237Z,7.20
2018-11-25T19:27:39.591Z,7.20
2018-11-25T19:30:10.852Z,7.20
2018-11-25T19:32:39.490Z,7.20
2018-11-25T19:35:10.287Z,7.20
2018-11-25T19:37:38.431Z,7.20
2018-11-25T19:40:11.883Z,7.20
2018-11-25T19:42:40.020Z,7.20
2018-11-25T19:45:24.232Z,7.20
2018-11-25T19:47:52.422Z,7.20
2018-11-25T19:50:22.347Z,7.20
2018-11-25T19:52:50.455Z,7.20
2018-11-25T19:55:18.658Z,7.20
2018-11-25T19:57:46.826Z,7.20
2018-11-25T20:00:17.547Z,7.20
2018-11-25T20:02:45.666Z,7.10
2018-11-25T20:05:14.110Z,7.10
2018-11-25T20:07:42.931Z,7.10
2018-11-25T20:10:13.259Z,7.10
2018-11-25T20:12:42.516Z,7.10
2018-11-25T20:15:14.711Z,7.10
2018-11-25T20:17:43.114Z,7.10
2018-11-25T20:20:14.206Z,7.10
2018-11-25T20:22:42.331Z,7.10
2018-11-25T20:25:11.403Z,7.10
2018-11-25T20:27:55.406Z,7.00
2018-11-25T20:30:26.871Z,7.00
2018-11-25T20:33:00.583Z,7.00
2018-11-25T20:35:28.743Z,7.10
2018-11-25T20:38:02.227Z,7.00
2018-11-25T20:40:30.343Z,7.00
2018-11-25T20:42:58.543Z,7.00
2018-11-25T20:45:38.563Z,7.00
2018-11-25T20:48:00.755Z,7.00
2018-11-25T20:50:28.923Z,7.00
2018-11-25T20:53:02.531Z,7.00
2018-11-25T20:55:30.634Z,7.00
2018-11-25T20:57:58.815Z,7.00
2018-11-25T21:00:28.418Z,7.00
2018-11-25T21:02:57.483Z,7.00
2018-11-25T21:05:25.636Z,7.00
2018-11-25T21:07:53.816Z,7.00
2018-11-25T21:10:22.043Z,7.00
2018-11-25T21:12:52.330Z,7.00
2018-11-25T21:15:20.429Z,7.00
2018-11-25T21:17:48.623Z,6.90
2018-11-25T21:20:18.203Z,6.90
2018-11-25T21:22:46.331Z,6.90
2018-11-25T21:25:15.605Z,6.90
2018-11-25T21:27:43.755Z,6.90
2018-11-25T21:30:17.971Z,6.90
2018-11-25T21:32:47.148Z,6.80
2018-11-25T21:35:15.231Z,6.80
2018-11-25T21:37:43.331Z,6.80
2018-11-25T21:40:14.562Z,6.80
2018-11-25T21:42:42.663Z,6.80
2018-11-25T21:45:12.063Z,6.70
2018-11-25T21:47:40.168Z,6.70
2018-11-25T21:50:12.434Z,6.70
2018-11-25T21:52:40.533Z,6.70
2018-11-25T21:55:10.970Z,6.70
2018-11-25T21:57:39.082Z,6.70
2018-11-25T22:00:10.755Z,6.70
2018-11-25T22:02:38.935Z,6.70
2018-11-25T22:05:07.811Z,6.60
2018-11-25T22:07:35.923Z,6.60
2018-11-25T22:10:04.389Z,6.60
2018-11-25T22:12:32.512Z,6.60
2018-11-25T22:15:00.701Z,6.60
2018-11-25T22:17:28.888Z,6.60
2018-11-25T22:19:57.067Z,6.60
2018-11-25T22:22:25.247Z,6.60
2018-11-25T22:24:53.439Z,6.60
2018-11-25T22:27:21.632Z,6.60
2018-11-25T22:29:49.823Z,6.60
2018-11-25T22:32:18.003Z,6.60
2018-11-25T22:34:46.191Z,6.60
2018-11-25T22:37:14.370Z,6.50
2018-11-25T22:39:42.583Z,6.60
2018-11-25T22:42:11.767Z,6.60
2018-11-25T22:44:39.870Z,6.60
2018-11-25T22:47:08.047Z,6.60
2018-11-25T22:49:36.168Z,6.60
2018-11-25T22:52:04.677Z,6.60
2018-11-25T22:54:32.807Z,6.60
2018-11-25T22:57:00.997Z,6.60
2018-11-25T22:59:29.197Z,6.60
2018-11-25T23:01:57.375Z,6.60
2018-11-25T23:04:36.985Z,6.60
2018-11-25T23:07:05.110Z,6.60
2018-11-25T23:09:33.295Z,6.50
2018-11-25T23:12:01.491Z,6.50
2018-11-25T23:14:29.686Z,6.50
2018-11-25T23:16:57.858Z,6.50
2018-11-25T23:19:26.045Z,6.50
2018-11-25T23:21:54.234Z,6.50
2018-11-25T23:24:22.430Z,6.50
2018-11-25T23:26:50.602Z,6.50
2018-11-25T23:29:18.807Z,6.50
2018-11-25T23:31:46.999Z,6.50
2018-11-25T23:34:15.163Z,6.50
2018-11-25T23:36:43.355Z,6.50
2018-11-25T23:39:11.550Z,6.50
2018-11-25T23:41:39.729Z,6.50
2018-11-25T23:44:08.151Z,6.50
2018-11-25T23:46:36.311Z,6.50
2018-11-25T23:49:04.490Z,6.60
2018-11-25T23:51:32.701Z,6.60
2018-11-25T23:54:00.864Z,6.60
2018-11-25T23:56:29.051Z,6.60
2018-11-25T23:58:57.227Z,6.60
